Terminal Aerodrome Forecast
Issued by NWS

Home | Current Version | Previous Version | Graphics & Text | Print | Product List | Glossary On
Versions: 1 2 3 4 5 6 7 8 9 10 11 12 13
829
FTUS43 KOAX 172320
TAFCDR
TAF
KCDR 172320Z 1800/1824 24005KT P6SM SKC
     FM180600 20006KT P6SM SCT120
     FM181600 18010G20KT P6SM BKN120=

USA.gov is the U.S. government's official web portal to all federal, state and local government web resources and services.